sensor_id;sensor_type;location;lat;lon;timestamp;P1;durP1;ratioP1;P2;durP2;ratioP2
71963;SDS011;59834;52.124;5.422;2022-07-22T00:00:32;4.45;;;0.73;;
71963;SDS011;59834;52.124;5.422;2022-07-22T00:02:59;5.30;;;0.60;;
71963;SDS011;59834;52.124;5.422;2022-07-22T00:05:26;5.25;;;0.70;;
71963;SDS011;59834;52.124;5.422;2022-07-22T00:07:53;8.63;;;0.73;;
71963;SDS011;59834;52.124;5.422;2022-07-22T00:10:19;7.47;;;1.43;;
71963;SDS011;59834;52.124;5.422;2022-07-22T00:12:46;2.35;;;0.70;;
71963;SDS011;59834;52.124;5.422;2022-07-22T00:15:12;9.50;;;0.55;;
71963;SDS011;59834;52.124;5.422;2022-07-22T00:17:40;3.53;;;0.70;;
71963;SDS011;59834;52.124;5.422;2022-07-22T00:20:07;3.58;;;0.40;;
71963;SDS011;59834;52.124;5.422;2022-07-22T00:22:35;2.40;;;0.50;;
71963;SDS011;59834;52.124;5.422;2022-07-22T00:25:03;5.30;;;0.70;;
71963;SDS011;59834;52.124;5.422;2022-07-22T00:27:30;2.78;;;0.68;;
71963;SDS011;59834;52.124;5.422;2022-07-22T00:29:57;8.73;;;0.95;;
71963;SDS011;59834;52.124;5.422;2022-07-22T00:32:24;8.02;;;0.73;;
71963;SDS011;59834;52.124;5.422;2022-07-22T00:34:51;5.20;;;1.47;;
71963;SDS011;59834;52.124;5.422;2022-07-22T00:37:17;6.10;;;0.90;;
71963;SDS011;59834;52.124;5.422;2022-07-22T00:39:45;6.90;;;0.82;;
71963;SDS011;59834;52.124;5.422;2022-07-22T00:42:12;5.88;;;0.98;;
71963;SDS011;59834;52.124;5.422;2022-07-22T00:44:39;4.60;;;0.50;;
71963;SDS011;59834;52.124;5.422;2022-07-22T00:47:06;2.87;;;0.50;;
71963;SDS011;59834;52.124;5.422;2022-07-22T00:49:33;6.43;;;0.60;;
71963;SDS011;59834;52.124;5.422;2022-07-22T00:52:00;2.50;;;0.30;;
71963;SDS011;59834;52.124;5.422;2022-07-22T00:54:27;3.60;;;0.68;;
71963;SDS011;59834;52.124;5.422;2022-07-22T00:56:54;4.65;;;0.65;;
71963;SDS011;59834;52.124;5.422;2022-07-22T00:59:21;7.87;;;0.70;;
71963;SDS011;59834;52.124;5.422;2022-07-22T01:01:48;5.00;;;0.90;;
71963;SDS011;59834;52.124;5.422;2022-07-22T01:04:14;8.13;;;0.93;;
71963;SDS011;59834;52.124;5.422;2022-07-22T01:06:42;3.78;;;0.50;;
71963;SDS011;59834;52.124;5.422;2022-07-22T01:09:11;2.67;;;0.55;;
71963;SDS011;59834;52.124;5.422;2022-07-22T01:11:39;4.80;;;0.30;;
71963;SDS011;59834;52.124;5.422;2022-07-22T01:14:06;5.35;;;0.35;;
71963;SDS011;59834;52.124;5.422;2022-07-22T01:16:33;3.25;;;0.30;;
71963;SDS011;59834;52.124;5.422;2022-07-22T01:19:00;2.42;;;0.40;;
71963;SDS011;59834;52.124;5.422;2022-07-22T01:21:27;1.67;;;0.50;;
71963;SDS011;59834;52.124;5.422;2022-07-22T01:23:53;2.87;;;0.30;;
71963;SDS011;59834;52.124;5.422;2022-07-22T01:26:20;3.00;;;0.30;;
71963;SDS011;59834;52.124;5.422;2022-07-22T01:28:47;2.42;;;0.30;;
71963;SDS011;59834;52.124;5.422;2022-07-22T01:31:13;2.53;;;0.30;;
71963;SDS011;59834;52.124;5.422;2022-07-22T01:33:40;9.10;;;0.43;;
71963;SDS011;59834;52.124;5.422;2022-07-22T01:36:07;3.87;;;0.30;;
71963;SDS011;59834;52.124;5.422;2022-07-22T01:38:34;5.05;;;0.40;;
71963;SDS011;59834;52.124;5.422;2022-07-22T01:41:01;4.72;;;0.63;;
71963;SDS011;59834;52.124;5.422;2022-07-22T01:43:27;2.65;;;0.43;;
71963;SDS011;59834;52.124;5.422;2022-07-22T01:45:54;12.48;;;0.55;;
71963;SDS011;59834;52.124;5.422;2022-07-22T01:48:21;6.90;;;1.40;;
71963;SDS011;59834;52.124;5.422;2022-07-22T01:50:48;6.75;;;1.13;;
71963;SDS011;59834;52.124;5.422;2022-07-22T01:53:15;3.80;;;0.50;;
71963;SDS011;59834;52.124;5.422;2022-07-22T01:55:42;4.65;;;0.63;;
71963;SDS011;59834;52.124;5.422;2022-07-22T01:58:08;4.93;;;0.40;;
71963;SDS011;59834;52.124;5.422;2022-07-22T02:00:35;3.87;;;0.43;;
71963;SDS011;59834;52.124;5.422;2022-07-22T02:03:02;4.13;;;0.60;;
71963;SDS011;59834;52.124;5.422;2022-07-22T02:05:28;4.68;;;0.75;;
71963;SDS011;59834;52.124;5.422;2022-07-22T02:07:59;3.50;;;0.40;;
71963;SDS011;59834;52.124;5.422;2022-07-22T02:10:27;3.25;;;0.57;;
71963;SDS011;59834;52.124;5.422;2022-07-22T02:12:55;3.87;;;0.70;;
71963;SDS011;59834;52.124;5.422;2022-07-22T02:15:22;3.78;;;0.38;;
71963;SDS011;59834;52.124;5.422;2022-07-22T02:17:49;7.10;;;0.43;;
71963;SDS011;59834;52.124;5.422;2022-07-22T02:20:16;3.53;;;0.50;;
71963;SDS011;59834;52.124;5.422;2022-07-22T02:22:43;4.80;;;0.50;;
71963;SDS011;59834;52.124;5.422;2022-07-22T02:25:09;7.07;;;0.60;;
71963;SDS011;59834;52.124;5.422;2022-07-22T02:27:36;4.18;;;0.45;;
71963;SDS011;59834;52.124;5.422;2022-07-22T02:30:04;4.82;;;0.60;;
71963;SDS011;59834;52.124;5.422;2022-07-22T02:32:31;6.10;;;0.75;;
71963;SDS011;59834;52.124;5.422;2022-07-22T02:34:58;5.05;;;0.90;;
71963;SDS011;59834;52.124;5.422;2022-07-22T02:37:25;3.87;;;0.63;;
71963;SDS011;59834;52.124;5.422;2022-07-22T02:39:53;4.18;;;0.40;;
71963;SDS011;59834;52.124;5.422;2022-07-22T02:42:19;5.00;;;0.80;;
71963;SDS011;59834;52.124;5.422;2022-07-22T02:44:46;4.20;;;0.40;;
71963;SDS011;59834;52.124;5.422;2022-07-22T02:47:12;4.32;;;0.50;;
71963;SDS011;59834;52.124;5.422;2022-07-22T02:49:39;7.33;;;0.77;;
71963;SDS011;59834;52.124;5.422;2022-07-22T02:52:05;6.35;;;1.02;;
71963;SDS011;59834;52.124;5.422;2022-07-22T02:54:32;6.03;;;0.73;;
71963;SDS011;59834;52.124;5.422;2022-07-22T02:56:59;5.05;;;0.60;;
71963;SDS011;59834;52.124;5.422;2022-07-22T02:59:26;10.35;;;0.68;;
71963;SDS011;59834;52.124;5.422;2022-07-22T03:01:52;5.23;;;0.70;;
71963;SDS011;59834;52.124;5.422;2022-07-22T03:04:19;8.80;;;0.50;;
71963;SDS011;59834;52.124;5.422;2022-07-22T03:06:45;7.63;;;0.52;;
71963;SDS011;59834;52.124;5.422;2022-07-22T03:09:12;6.70;;;0.63;;
71963;SDS011;59834;52.124;5.422;2022-07-22T03:11:39;3.67;;;0.95;;
71963;SDS011;59834;52.124;5.422;2022-07-22T03:14:05;6.33;;;0.40;;
71963;SDS011;59834;52.124;5.422;2022-07-22T03:16:32;5.40;;;0.73;;
71963;SDS011;59834;52.124;5.422;2022-07-22T03:18:58;4.35;;;0.50;;
71963;SDS011;59834;52.124;5.422;2022-07-22T03:21:26;2.92;;;0.57;;
71963;SDS011;59834;52.124;5.422;2022-07-22T03:23:53;4.00;;;0.65;;
71963;SDS011;59834;52.124;5.422;2022-07-22T03:26:23;3.50;;;0.83;;
71963;SDS011;59834;52.124;5.422;2022-07-22T03:28:50;2.72;;;0.60;;
71963;SDS011;59834;52.124;5.422;2022-07-22T03:31:18;3.60;;;0.40;;
71963;SDS011;59834;52.124;5.422;2022-07-22T03:33:45;4.38;;;0.60;;
71963;SDS011;59834;52.124;5.422;2022-07-22T03:36:11;2.75;;;0.60;;
71963;SDS011;59834;52.124;5.422;2022-07-22T03:38:38;7.63;;;0.90;;
71963;SDS011;59834;52.124;5.422;2022-07-22T03:41:04;2.60;;;0.38;;
71963;SDS011;59834;52.124;5.422;2022-07-22T03:43:31;3.92;;;0.70;;
71963;SDS011;59834;52.124;5.422;2022-07-22T03:45:57;2.10;;;0.40;;
71963;SDS011;59834;52.124;5.422;2022-07-22T03:48:24;3.42;;;0.30;;
71963;SDS011;59834;52.124;5.422;2022-07-22T03:50:51;3.60;;;0.50;;
71963;SDS011;59834;52.124;5.422;2022-07-22T03:53:17;2.53;;;0.40;;
71963;SDS011;59834;52.124;5.422;2022-07-22T03:55:44;2.70;;;0.45;;
71963;SDS011;59834;52.124;5.422;2022-07-22T03:58:11;2.78;;;0.52;;
71963;SDS011;59834;52.124;5.422;2022-07-22T04:00:37;4.60;;;0.50;;
71963;SDS011;59834;52.124;5.422;2022-07-22T04:03:04;6.80;;;0.63;;
71963;SDS011;59834;52.124;5.422;2022-07-22T04:05:31;5.57;;;0.70;;
71963;SDS011;59834;52.124;5.422;2022-07-22T04:07:57;4.30;;;0.65;;
71963;SDS011;59834;52.124;5.422;2022-07-22T04:10:24;6.20;;;0.55;;
71963;SDS011;59834;52.124;5.422;2022-07-22T04:12:50;2.03;;;0.30;;
71963;SDS011;59834;52.124;5.422;2022-07-22T04:15:17;3.77;;;0.40;;
71963;SDS011;59834;52.124;5.422;2022-07-22T04:17:43;4.97;;;1.13;;
71963;SDS011;59834;52.124;5.422;2022-07-22T04:20:10;4.18;;;0.50;;
71963;SDS011;59834;52.124;5.422;2022-07-22T04:22:36;4.70;;;0.40;;
71963;SDS011;59834;52.124;5.422;2022-07-22T04:25:03;2.55;;;0.35;;
71963;SDS011;59834;52.124;5.422;2022-07-22T04:27:30;5.40;;;0.40;;
71963;SDS011;59834;52.124;5.422;2022-07-22T04:29:56;3.72;;;0.50;;
71963;SDS011;59834;52.124;5.422;2022-07-22T04:32:23;4.82;;;0.40;;
71963;SDS011;59834;52.124;5.422;2022-07-22T04:34:50;4.82;;;0.40;;
71963;SDS011;59834;52.124;5.422;2022-07-22T04:37:16;2.00;;;0.52;;
71963;SDS011;59834;52.124;5.422;2022-07-22T04:39:43;2.33;;;0.37;;
71963;SDS011;59834;52.124;5.422;2022-07-22T04:42:11;3.28;;;0.35;;
71963;SDS011;59834;52.124;5.422;2022-07-22T04:44:37;6.30;;;0.63;;
71963;SDS011;59834;52.124;5.422;2022-07-22T04:47:04;1.17;;;0.30;;
71963;SDS011;59834;52.124;5.422;2022-07-22T04:49:34;2.95;;;0.47;;
71963;SDS011;59834;52.124;5.422;2022-07-22T04:52:01;2.60;;;0.33;;
71963;SDS011;59834;52.124;5.422;2022-07-22T04:54:27;2.20;;;0.30;;
71963;SDS011;59834;52.124;5.422;2022-07-22T04:56:54;2.78;;;0.40;;
71963;SDS011;59834;52.124;5.422;2022-07-22T04:59:21;2.58;;;0.30;;
71963;SDS011;59834;52.124;5.422;2022-07-22T05:01:49;4.45;;;0.38;;
71963;SDS011;59834;52.124;5.422;2022-07-22T05:04:16;3.83;;;0.30;;
71963;SDS011;59834;52.124;5.422;2022-07-22T05:06:43;3.70;;;0.35;;
71963;SDS011;59834;52.124;5.422;2022-07-22T05:09:09;1.75;;;0.40;;
71963;SDS011;59834;52.124;5.422;2022-07-22T05:11:36;4.43;;;0.30;;
71963;SDS011;59834;52.124;5.422;2022-07-22T05:14:03;2.25;;;0.20;;
71963;SDS011;59834;52.124;5.422;2022-07-22T05:16:30;3.23;;;0.40;;
71963;SDS011;59834;52.124;5.422;2022-07-22T05:18:57;3.42;;;0.20;;
71963;SDS011;59834;52.124;5.422;2022-07-22T05:21:24;1.55;;;0.38;;
71963;SDS011;59834;52.124;5.422;2022-07-22T05:23:52;4.38;;;0.32;;
71963;SDS011;59834;52.124;5.422;2022-07-22T05:26:18;1.92;;;0.28;;
71963;SDS011;59834;52.124;5.422;2022-07-22T05:28:45;6.47;;;0.20;;
71963;SDS011;59834;52.124;5.422;2022-07-22T05:31:11;1.92;;;0.20;;
71963;SDS011;59834;52.124;5.422;2022-07-22T05:33:38;4.97;;;0.30;;
71963;SDS011;59834;52.124;5.422;2022-07-22T05:36:05;2.47;;;0.20;;
71963;SDS011;59834;52.124;5.422;2022-07-22T05:38:33;1.90;;;0.30;;
71963;SDS011;59834;52.124;5.422;2022-07-22T05:40:59;3.47;;;0.20;;
71963;SDS011;59834;52.124;5.422;2022-07-22T05:43:26;3.22;;;0.73;;
71963;SDS011;59834;52.124;5.422;2022-07-22T05:45:53;4.32;;;0.38;;
71963;SDS011;59834;52.124;5.422;2022-07-22T05:48:20;2.33;;;0.68;;
71963;SDS011;59834;52.124;5.422;2022-07-22T05:50:46;3.40;;;0.50;;
71963;SDS011;59834;52.124;5.422;2022-07-22T05:53:14;2.60;;;0.20;;
71963;SDS011;59834;52.124;5.422;2022-07-22T05:55:41;1.67;;;0.32;;
71963;SDS011;59834;52.124;5.422;2022-07-22T05:58:08;4.30;;;0.40;;
71963;SDS011;59834;52.124;5.422;2022-07-22T06:00:34;3.13;;;0.20;;
71963;SDS011;59834;52.124;5.422;2022-07-22T06:03:01;3.33;;;0.52;;
71963;SDS011;59834;52.124;5.422;2022-07-22T06:05:28;3.00;;;0.20;;
71963;SDS011;59834;52.124;5.422;2022-07-22T06:08:03;2.80;;;0.30;;
71963;SDS011;59834;52.124;5.422;2022-07-22T06:10:30;3.58;;;0.20;;
71963;SDS011;59834;52.124;5.422;2022-07-22T06:12:57;3.83;;;0.22;;
71963;SDS011;59834;52.124;5.422;2022-07-22T06:15:24;3.05;;;0.30;;
71963;SDS011;59834;52.124;5.422;2022-07-22T06:17:52;2.33;;;0.30;;
71963;SDS011;59834;52.124;5.422;2022-07-22T06:20:19;2.03;;;0.40;;
71963;SDS011;59834;52.124;5.422;2022-07-22T06:22:46;6.55;;;0.55;;
71963;SDS011;59834;52.124;5.422;2022-07-22T06:25:12;6.82;;;0.30;;
71963;SDS011;59834;52.124;5.422;2022-07-22T06:27:59;1.52;;;0.20;;
71963;SDS011;59834;52.124;5.422;2022-07-22T06:30:26;2.27;;;0.40;;
71963;SDS011;59834;52.124;5.422;2022-07-22T06:32:53;3.75;;;0.22;;
71963;SDS011;59834;52.124;5.422;2022-07-22T06:35:22;1.63;;;0.28;;
71963;SDS011;59834;52.124;5.422;2022-07-22T06:37:51;5.68;;;0.77;;
71963;SDS011;59834;52.124;5.422;2022-07-22T06:40:31;2.55;;;0.40;;
71963;SDS011;59834;52.124;5.422;2022-07-22T06:42:59;2.07;;;0.20;;
71963;SDS011;59834;52.124;5.422;2022-07-22T06:45:26;4.65;;;0.35;;
71963;SDS011;59834;52.124;5.422;2022-07-22T06:47:53;4.18;;;0.30;;
71963;SDS011;59834;52.124;5.422;2022-07-22T06:50:20;2.42;;;0.30;;
71963;SDS011;59834;52.124;5.422;2022-07-22T06:52:49;4.85;;;0.60;;
71963;SDS011;59834;52.124;5.422;2022-07-22T06:55:15;3.20;;;0.83;;
71963;SDS011;59834;52.124;5.422;2022-07-22T06:57:42;1.20;;;0.20;;
71963;SDS011;59834;52.124;5.422;2022-07-22T07:00:09;9.90;;;0.80;;
71963;SDS011;59834;52.124;5.422;2022-07-22T07:02:36;4.60;;;0.20;;
71963;SDS011;59834;52.124;5.422;2022-07-22T07:05:03;2.40;;;0.30;;
71963;SDS011;59834;52.124;5.422;2022-07-22T07:07:30;4.73;;;0.47;;
71963;SDS011;59834;52.124;5.422;2022-07-22T07:09:58;0.93;;;0.20;;
71963;SDS011;59834;52.124;5.422;2022-07-22T07:12:25;4.32;;;0.68;;
71963;SDS011;59834;52.124;5.422;2022-07-22T07:14:52;7.55;;;0.30;;
71963;SDS011;59834;52.124;5.422;2022-07-22T07:17:39;1.85;;;0.20;;
71963;SDS011;59834;52.124;5.422;2022-07-22T07:20:06;1.80;;;0.20;;
71963;SDS011;59834;52.124;5.422;2022-07-22T07:22:33;3.00;;;0.30;;
71963;SDS011;59834;52.124;5.422;2022-07-22T07:25:02;2.05;;;0.47;;
71963;SDS011;59834;52.124;5.422;2022-07-22T07:27:47;4.60;;;0.20;;
71963;SDS011;59834;52.124;5.422;2022-07-22T07:30:14;2.00;;;0.30;;
71963;SDS011;59834;52.124;5.422;2022-07-22T07:32:40;1.37;;;0.20;;
71963;SDS011;59834;52.124;5.422;2022-07-22T07:35:07;3.03;;;0.20;;
71963;SDS011;59834;52.124;5.422;2022-07-22T07:37:35;4.82;;;0.30;;
71963;SDS011;59834;52.124;5.422;2022-07-22T07:40:03;2.67;;;0.30;;
71963;SDS011;59834;52.124;5.422;2022-07-22T07:42:30;3.17;;;0.25;;
71963;SDS011;59834;52.124;5.422;2022-07-22T07:44:57;1.40;;;0.20;;
71963;SDS011;59834;52.124;5.422;2022-07-22T07:47:23;1.58;;;0.30;;
71963;SDS011;59834;52.124;5.422;2022-07-22T07:49:50;2.90;;;0.47;;
71963;SDS011;59834;52.124;5.422;2022-07-22T07:52:17;0.90;;;0.20;;
71963;SDS011;59834;52.124;5.422;2022-07-22T07:54:44;1.77;;;0.40;;
71963;SDS011;59834;52.124;5.422;2022-07-22T07:57:31;2.23;;;0.27;;
71963;SDS011;59834;52.124;5.422;2022-07-22T08:00:00;2.67;;;0.20;;
71963;SDS011;59834;52.124;5.422;2022-07-22T08:02:27;5.90;;;0.22;;
71963;SDS011;59834;52.124;5.422;2022-07-22T08:04:54;1.25;;;0.20;;
71963;SDS011;59834;52.124;5.422;2022-07-22T08:07:24;3.85;;;0.20;;
71963;SDS011;59834;52.124;5.422;2022-07-22T08:09:52;8.90;;;1.37;;
71963;SDS011;59834;52.124;5.422;2022-07-22T08:12:38;1.63;;;0.20;;
71963;SDS011;59834;52.124;5.422;2022-07-22T08:15:05;1.75;;;0.25;;
71963;SDS011;59834;52.124;5.422;2022-07-22T08:17:33;1.48;;;0.20;;
71963;SDS011;59834;52.124;5.422;2022-07-22T08:20:02;1.65;;;0.20;;
71963;SDS011;59834;52.124;5.422;2022-07-22T08:22:30;4.67;;;0.50;;
71963;SDS011;59834;52.124;5.422;2022-07-22T08:24:58;1.58;;;0.30;;
71963;SDS011;59834;52.124;5.422;2022-07-22T08:27:25;4.97;;;0.40;;
71963;SDS011;59834;52.124;5.422;2022-07-22T08:29:54;1.73;;;0.50;;
71963;SDS011;59834;52.124;5.422;2022-07-22T08:32:20;5.15;;;0.57;;
71963;SDS011;59834;52.124;5.422;2022-07-22T08:34:48;2.03;;;0.20;;
71963;SDS011;59834;52.124;5.422;2022-07-22T08:37:14;5.45;;;0.38;;
71963;SDS011;59834;52.124;5.422;2022-07-22T08:39:41;2.22;;;0.40;;
71963;SDS011;59834;52.124;5.422;2022-07-22T08:42:07;1.85;;;0.20;;
71963;SDS011;59834;52.124;5.422;2022-07-22T08:44:35;7.10;;;0.95;;
71963;SDS011;59834;52.124;5.422;2022-07-22T08:47:02;4.53;;;0.30;;
71963;SDS011;59834;52.124;5.422;2022-07-22T08:49:48;1.52;;;0.22;;
71963;SDS011;59834;52.124;5.422;2022-07-22T08:52:15;1.17;;;0.35;;
71963;SDS011;59834;52.124;5.422;2022-07-22T08:54:43;2.25;;;0.30;;
71963;SDS011;59834;52.124;5.422;2022-07-22T08:57:09;3.03;;;0.40;;
71963;SDS011;59834;52.124;5.422;2022-07-22T08:59:48;1.50;;;0.50;;
71963;SDS011;59834;52.124;5.422;2022-07-22T09:02:23;0.90;;;0.20;;
71963;SDS011;59834;52.124;5.422;2022-07-22T09:04:57;1.85;;;0.20;;
71963;SDS011;59834;52.124;5.422;2022-07-22T09:07:45;1.65;;;0.40;;
71963;SDS011;59834;52.124;5.422;2022-07-22T09:10:14;2.83;;;0.45;;
71963;SDS011;59834;52.124;5.422;2022-07-22T09:12:59;1.97;;;0.23;;
71963;SDS011;59834;52.124;5.422;2022-07-22T09:17:57;1.08;;;0.40;;
71963;SDS011;59834;52.124;5.422;2022-07-22T09:20:31;0.85;;;0.40;;
71963;SDS011;59834;52.124;5.422;2022-07-22T09:22:59;2.60;;;0.57;;
71963;SDS011;59834;52.124;5.422;2022-07-22T09:30:40;3.42;;;0.20;;
71963;SDS011;59834;52.124;5.422;2022-07-22T09:33:15;1.80;;;0.40;;
71963;SDS011;59834;52.124;5.422;2022-07-22T09:35:43;2.05;;;0.55;;
71963;SDS011;59834;52.124;5.422;2022-07-22T09:38:16;1.83;;;0.30;;
71963;SDS011;59834;52.124;5.422;2022-07-22T09:40:47;1.15;;;0.20;;
71963;SDS011;59834;52.124;5.422;2022-07-22T09:43:16;4.20;;;0.40;;
71963;SDS011;59834;52.124;5.422;2022-07-22T09:48:13;3.78;;;0.30;;
71963;SDS011;59834;52.124;5.422;2022-07-22T09:50:40;2.27;;;0.30;;
71963;SDS011;59834;52.124;5.422;2022-07-22T09:53:07;2.75;;;0.40;;
71963;SDS011;59834;52.124;5.422;2022-07-22T09:55:33;1.73;;;0.30;;
71963;SDS011;59834;52.124;5.422;2022-07-22T09:58:04;1.20;;;0.45;;
71963;SDS011;59834;52.124;5.422;2022-07-22T10:00:31;0.65;;;0.20;;
71963;SDS011;59834;52.124;5.422;2022-07-22T10:02:59;1.77;;;0.40;;
71963;SDS011;59834;52.124;5.422;2022-07-22T10:05:31;2.72;;;0.50;;
71963;SDS011;59834;52.124;5.422;2022-07-22T10:08:00;3.08;;;0.38;;
71963;SDS011;59834;52.124;5.422;2022-07-22T10:10:28;2.17;;;0.45;;
71963;SDS011;59834;52.124;5.422;2022-07-22T10:12:59;2.42;;;0.40;;
71963;SDS011;59834;52.124;5.422;2022-07-22T10:15:27;2.90;;;0.40;;
71963;SDS011;59834;52.124;5.422;2022-07-22T10:18:01;1.80;;;0.30;;
71963;SDS011;59834;52.124;5.422;2022-07-22T10:20:34;1.35;;;0.30;;
71963;SDS011;59834;52.124;5.422;2022-07-22T10:23:03;2.60;;;0.40;;
71963;SDS011;59834;52.124;5.422;2022-07-22T10:25:49;1.05;;;0.30;;
71963;SDS011;59834;52.124;5.422;2022-07-22T10:28:22;3.23;;;0.30;;
71963;SDS011;59834;52.124;5.422;2022-07-22T10:30:58;1.50;;;0.50;;
71963;SDS011;59834;52.124;5.422;2022-07-22T10:33:43;3.08;;;0.40;;
71963;SDS011;59834;52.124;5.422;2022-07-22T10:36:10;1.13;;;0.30;;
71963;SDS011;59834;52.124;5.422;2022-07-22T10:38:38;2.05;;;0.50;;
71963;SDS011;59834;52.124;5.422;2022-07-22T10:41:36;1.20;;;0.40;;
71963;SDS011;59834;52.124;5.422;2022-07-22T10:44:07;3.80;;;0.47;;
71963;SDS011;59834;52.124;5.422;2022-07-22T10:46:53;1.88;;;0.30;;
71963;SDS011;59834;52.124;5.422;2022-07-22T10:49:22;2.00;;;0.40;;
71963;SDS011;59834;52.124;5.422;2022-07-22T10:54:32;3.17;;;0.63;;
71963;SDS011;59834;52.124;5.422;2022-07-22T10:57:03;1.63;;;0.40;;
71963;SDS011;59834;52.124;5.422;2022-07-22T10:59:30;2.17;;;0.40;;
71963;SDS011;59834;52.124;5.422;2022-07-22T11:01:56;1.17;;;0.50;;
71963;SDS011;59834;52.124;5.422;2022-07-22T11:04:25;2.85;;;0.40;;
71963;SDS011;59834;52.124;5.422;2022-07-22T11:06:53;1.70;;;0.47;;
71963;SDS011;59834;52.124;5.422;2022-07-22T11:09:22;2.45;;;0.50;;
71963;SDS011;59834;52.124;5.422;2022-07-22T11:11:57;5.20;;;0.57;;
71963;SDS011;59834;52.124;5.422;2022-07-22T11:14:29;2.05;;;0.45;;
71963;SDS011;59834;52.124;5.422;2022-07-22T11:17:04;2.15;;;0.68;;
71963;SDS011;59834;52.124;5.422;2022-07-22T11:19:32;1.20;;;0.40;;
71963;SDS011;59834;52.124;5.422;2022-07-22T11:22:04;3.15;;;0.40;;
71963;SDS011;59834;52.124;5.422;2022-07-22T11:24:35;1.40;;;0.40;;
71963;SDS011;59834;52.124;5.422;2022-07-22T11:27:02;5.50;;;1.00;;
71963;SDS011;59834;52.124;5.422;2022-07-22T11:29:35;3.75;;;0.52;;
71963;SDS011;59834;52.124;5.422;2022-07-22T11:32:06;2.60;;;0.63;;
71963;SDS011;59834;52.124;5.422;2022-07-22T11:34:38;3.15;;;0.93;;
71963;SDS011;59834;52.124;5.422;2022-07-22T11:37:12;3.42;;;0.70;;
71963;SDS011;59834;52.124;5.422;2022-07-22T11:39:42;4.32;;;1.00;;
71963;SDS011;59834;52.124;5.422;2022-07-22T11:42:09;2.28;;;0.90;;
71963;SDS011;59834;52.124;5.422;2022-07-22T11:44:37;1.60;;;0.80;;
71963;SDS011;59834;52.124;5.422;2022-07-22T11:47:05;3.60;;;1.08;;
71963;SDS011;59834;52.124;5.422;2022-07-22T11:49:34;3.63;;;1.25;;
71963;SDS011;59834;52.124;5.422;2022-07-22T11:52:03;2.75;;;1.35;;
71963;SDS011;59834;52.124;5.422;2022-07-22T11:54:36;2.55;;;1.08;;
71963;SDS011;59834;52.124;5.422;2022-07-22T11:57:02;3.07;;;1.20;;
71963;SDS011;59834;52.124;5.422;2022-07-22T11:59:29;1.85;;;1.25;;
71963;SDS011;59834;52.124;5.422;2022-07-22T12:01:56;6.57;;;1.60;;
71963;SDS011;59834;52.124;5.422;2022-07-22T12:04:24;2.85;;;1.15;;
71963;SDS011;59834;52.124;5.422;2022-07-22T12:06:53;2.30;;;1.02;;
71963;SDS011;59834;52.124;5.422;2022-07-22T12:09:30;2.07;;;1.30;;
71963;SDS011;59834;52.124;5.422;2022-07-22T12:12:00;2.85;;;0.95;;
71963;SDS011;59834;52.124;5.422;2022-07-22T12:14:28;3.33;;;1.73;;
71963;SDS011;59834;52.124;5.422;2022-07-22T12:17:00;3.53;;;1.83;;
71963;SDS011;59834;52.124;5.422;2022-07-22T12:19:33;2.25;;;1.48;;
71963;SDS011;59834;52.124;5.422;2022-07-22T12:22:05;3.70;;;1.50;;
71963;SDS011;59834;52.124;5.422;2022-07-22T12:27:08;7.63;;;1.30;;
71963;SDS011;59834;52.124;5.422;2022-07-22T12:32:07;3.00;;;1.55;;
71963;SDS011;59834;52.124;5.422;2022-07-22T12:34:47;1.70;;;1.10;;
71963;SDS011;59834;52.124;5.422;2022-07-22T12:37:25;2.30;;;1.15;;
71963;SDS011;59834;52.124;5.422;2022-07-22T12:42:38;2.35;;;1.30;;
71963;SDS011;59834;52.124;5.422;2022-07-22T12:47:50;2.47;;;1.10;;
71963;SDS011;59834;52.124;5.422;2022-07-22T12:50:25;6.10;;;1.30;;
71963;SDS011;59834;52.124;5.422;2022-07-22T12:52:56;2.13;;;1.00;;
71963;SDS011;59834;52.124;5.422;2022-07-22T12:55:50;2.70;;;0.95;;
71963;SDS011;59834;52.124;5.422;2022-07-22T12:58:18;3.83;;;1.70;;
71963;SDS011;59834;52.124;5.422;2022-07-22T13:00:48;3.72;;;0.95;;
71963;SDS011;59834;52.124;5.422;2022-07-22T13:03:19;3.50;;;1.42;;
71963;SDS011;59834;52.124;5.422;2022-07-22T13:05:58;3.90;;;1.42;;
71963;SDS011;59834;52.124;5.422;2022-07-22T13:08:34;6.70;;;1.45;;
71963;SDS011;59834;52.124;5.422;2022-07-22T13:11:11;2.03;;;1.50;;
71963;SDS011;59834;52.124;5.422;2022-07-22T13:13:37;5.63;;;1.60;;
71963;SDS011;59834;52.124;5.422;2022-07-22T13:16:04;2.95;;;1.50;;
71963;SDS011;59834;52.124;5.422;2022-07-22T13:18:31;2.35;;;1.40;;
71963;SDS011;59834;52.124;5.422;2022-07-22T13:20:57;3.15;;;1.15;;
71963;SDS011;59834;52.124;5.422;2022-07-22T13:23:27;2.97;;;1.60;;
71963;SDS011;59834;52.124;5.422;2022-07-22T13:25:53;3.97;;;1.30;;
71963;SDS011;59834;52.124;5.422;2022-07-22T13:28:21;3.90;;;1.85;;
71963;SDS011;59834;52.124;5.422;2022-07-22T13:30:48;3.53;;;1.70;;
71963;SDS011;59834;52.124;5.422;2022-07-22T13:33:17;3.58;;;1.73;;
71963;SDS011;59834;52.124;5.422;2022-07-22T13:35:43;6.63;;;2.03;;
71963;SDS011;59834;52.124;5.422;2022-07-22T13:38:12;4.50;;;1.65;;
71963;SDS011;59834;52.124;5.422;2022-07-22T13:40:42;3.83;;;2.05;;
71963;SDS011;59834;52.124;5.422;2022-07-22T13:43:20;2.08;;;1.08;;
71963;SDS011;59834;52.124;5.422;2022-07-22T13:45:49;4.60;;;1.50;;
71963;SDS011;59834;52.124;5.422;2022-07-22T13:48:16;12.17;;;2.03;;
71963;SDS011;59834;52.124;5.422;2022-07-22T13:50:47;3.38;;;1.35;;
71963;SDS011;59834;52.124;5.422;2022-07-22T13:53:13;2.70;;;1.10;;
71963;SDS011;59834;52.124;5.422;2022-07-22T13:55:40;2.15;;;0.95;;
71963;SDS011;59834;52.124;5.422;2022-07-22T13:58:07;3.28;;;1.20;;
71963;SDS011;59834;52.124;5.422;2022-07-22T14:00:34;2.73;;;1.30;;
71963;SDS011;59834;52.124;5.422;2022-07-22T14:03:00;7.43;;;1.50;;
71963;SDS011;59834;52.124;5.422;2022-07-22T14:05:27;3.20;;;1.40;;
71963;SDS011;59834;52.124;5.422;2022-07-22T14:07:53;4.53;;;1.27;;
71963;SDS011;59834;52.124;5.422;2022-07-22T14:10:20;3.75;;;1.08;;
71963;SDS011;59834;52.124;5.422;2022-07-22T14:12:46;2.60;;;0.93;;
71963;SDS011;59834;52.124;5.422;2022-07-22T14:15:13;2.78;;;1.48;;
71963;SDS011;59834;52.124;5.422;2022-07-22T14:17:41;4.78;;;1.25;;
71963;SDS011;59834;52.124;5.422;2022-07-22T14:20:08;6.60;;;1.20;;
71963;SDS011;59834;52.124;5.422;2022-07-22T14:22:35;2.58;;;1.23;;
71963;SDS011;59834;52.124;5.422;2022-07-22T14:25:02;4.87;;;1.33;;
71963;SDS011;59834;52.124;5.422;2022-07-22T14:27:29;2.42;;;1.70;;
71963;SDS011;59834;52.124;5.422;2022-07-22T14:35:48;2.25;;;1.00;;
71963;SDS011;59834;52.124;5.422;2022-07-22T14:38:15;3.07;;;1.27;;
71963;SDS011;59834;52.124;5.422;2022-07-22T14:40:41;3.65;;;1.48;;
71963;SDS011;59834;52.124;5.422;2022-07-22T14:43:08;2.38;;;1.00;;
71963;SDS011;59834;52.124;5.422;2022-07-22T14:45:57;3.25;;;1.40;;
71963;SDS011;59834;52.124;5.422;2022-07-22T14:48:24;2.03;;;0.95;;
71963;SDS011;59834;52.124;5.422;2022-07-22T14:50:51;2.03;;;0.80;;
71963;SDS011;59834;52.124;5.422;2022-07-22T14:53:17;1.90;;;0.75;;
71963;SDS011;59834;52.124;5.422;2022-07-22T14:55:44;2.45;;;0.80;;
71963;SDS011;59834;52.124;5.422;2022-07-22T14:58:11;3.30;;;1.08;;
71963;SDS011;59834;52.124;5.422;2022-07-22T15:00:38;2.55;;;0.98;;
71963;SDS011;59834;52.124;5.422;2022-07-22T15:03:04;1.50;;;0.80;;
71963;SDS011;59834;52.124;5.422;2022-07-22T15:05:31;7.03;;;0.77;;
71963;SDS011;59834;52.124;5.422;2022-07-22T15:07:57;3.53;;;0.82;;
71963;SDS011;59834;52.124;5.422;2022-07-22T15:10:24;5.03;;;1.88;;
71963;SDS011;59834;52.124;5.422;2022-07-22T15:12:51;4.32;;;0.77;;
71963;SDS011;59834;52.124;5.422;2022-07-22T15:15:17;7.77;;;1.00;;
71963;SDS011;59834;52.124;5.422;2022-07-22T15:17:44;1.92;;;0.73;;
71963;SDS011;59834;52.124;5.422;2022-07-22T15:20:12;2.85;;;0.57;;
71963;SDS011;59834;52.124;5.422;2022-07-22T15:22:39;1.73;;;0.70;;
71963;SDS011;59834;52.124;5.422;2022-07-22T15:25:05;1.88;;;0.63;;